RKTU METAR and TAF | Updated Today

RKTU METAR

Cheongju International Airport/Cheongju Air Base (K-59/G-513)

Observation time: 57 min. ago

RKTU 032200Z 35001KT CAVOK M05/M06 Q1025

Need help? Read our tutorial on how to read METARs or read the parsed version below.

Cheongju International Airport/Cheongju Air Base (K-59/G-513) (RKTU) METAR

  • Weather conditions on Fri, 03 Dec 2021 22:00:00 +0000 (57 min. ago):
  • Present conditions: Dry
  • Clouds: Clear skies
  • Visibility: Greater than 10 km
  • Wind: 350 degrees at 1 knots
  • Temperature: -5 celsius
  • Dew point: -6 celsius
  • Pressure: 1025 millibars
  • Remarks: None


Useful to know...

RKTU TAF

Cheongju International Airport/Cheongju Air Base (K-59/G-513)

TAF COR RKTU 031700Z 0318/0424 30006KT 9999 SCT030 TNM05/0321Z TX08/0406Z
Observation time: 5:57 hr. ago
Need help? Read our tutorial on how to read TAFs or read the parsed version below.

Parsed version of TAF for Cheongju International Airport/Cheongju Air Base (K-59/G-513) (RKTU)

  • From 03 December at 18:00 UTC, to day 04 of the month at 24:00 UTC
  • Clouds: Scattered at 914 meters
  • Visibility: Greater than 10 km
  • Wind: 300 degrees at 6